Connexion S'enregistrer

Connexion à votre compte

Identifiant
Mot de passe
Maintenir la connexion active sur ce site

Créer un compte

Pour valider ce formulaire, vous devez remplir tous les champs.
Nom
Identifiant
Mot de passe
Répétez le mot de passe
Adresse e-mail
Répétez l'adresse e-mail

Nous contacter

 Téléphone : +33 (0)4 79 54 41 81

Coordonnées détaillées et accès : cliquez ici

 
LFLB °C
    Ferienhaus Ostsee
[source: ADDS]
METAR
LFLB 151400Z AUTO 34003KT 300V020 CAVOK 30/15 Q1022 NOSIG =
TAF LFLB 151100Z 1512/1612 36005KT CAVOK PROB30 TEMPO 1603/1606 3000 MIFG
TAF
TAF LFLB 151100Z 1512/1612 36005KT CAVOK PROB30 TEMPO 1603/1606 3000 MIFG =
SR / SS: 05:14 / 17:49 UTC (Lever/Coucher du soleil le 2019-09-15)
JSN Boot template designed by JoomlaShine.com